Bookmark and Share
Track history (hours):
 

APL Coral

More information available from US FCC via Universal Licensing System and Coast Guard Vessel Documentation Center.

Last reported at 2014-Apr-19 00:29 UTC. Time now 2014-Apr-24 23:06 UTC.
Position N 01°14' E 103°25'.

Length 275 m; draft 12.3 m.

Type: Cargo ship. MMSI: 367478280.

NotesDate/timePositionNaut miles runAvg speedWind from/ knotsBaromVisibWave heightAir tempDewpointWater temp
2014-Apr-19 00:29N 01°14' E 103°25'1718.9
2014-Apr-18 23:33N 01°09' E 103°42'11 9.6
2014-Apr-18 22:26N 01°14' E 103°52'2 0.9
2014-Apr-18 20:15N 01°16' E 103°51'0 0.0
2014-Apr-18 19:33N 01°16' E 103°51'0 0.0
2014-Apr-18 04:33N 01°16' E 103°51'0 0.0
2014-Apr-18 03:27N 01°16' E 103°51'0 0.0
2014-Apr-18 02:06N 01°16' E 103°51'0 0.0
2014-Apr-17 22:21N 01°16' E 103°51'0 0.0
2014-Apr-17 21:33N 01°16' E 103°51'0 0.0
2014-Apr-17 20:29N 01°16' E 103°51'0 0.0
2014-Apr-17 09:29N 01°16' E 103°51'0 0.0
2014-Apr-17 08:29N 01°16' E 103°51'0 0.0
2014-Apr-17 07:32N 01°16' E 103°51'0 0.0
2014-Apr-17 06:29N 01°16' E 103°51'0 0.1
2014-Apr-17 05:29N 01°16' E 103°51'0 0.1
2014-Apr-17 04:32N 01°16' E 103°51'0 0.1
2014-Apr-16 22:33N 01°16' E 103°51'2 2.3
2014-Apr-16 21:32N 01°14' E 103°53'3 3.3
2014-Apr-16 20:33N 01°11' E 103°51'9 8.6
2014-Apr-16 19:33N 01°06' E 103°44'7 7.3
2014-Apr-16 18:33N 01°03' E 103°37'9 8.4
2014-Apr-16 17:32N 01°08' E 103°30'8 8.5
2014-Apr-16 16:33N 01°12' E 103°23'  
2014-Apr-12 06:00N 07°30' E 076°12'11719.5 340 / 91015.010.8 1.029.026.331.0
2014-Apr-12 00:00N 08°18' E 074°24'59219.7 010 / 21013.010.8 28.525.131.0
2014-Apr-10 18:00N 15°12' E 067°12'74020.5 050 / 21017.0 5.4 26.020.229.0
2014-Apr-09 06:00N 24°30' E 058°36'   290 / 21017.0 27.019.726.0

Dump ship's entire track history

sailing weather and tide predictions

APL Coral — WDF6832 — position and weather